createdAt,value
2022-12-15T00:03:40.875Z,14.13
2022-12-15T00:09:02.506Z,13.65
2022-12-15T00:14:25.465Z,12.90
2022-12-15T00:19:46.626Z,13.40
2022-12-15T00:25:07.944Z,12.48
2022-12-15T00:30:31.849Z,12.65
2022-12-15T00:35:52.872Z,11.88
2022-12-15T00:40:59.680Z,12.18
2022-12-15T00:46:24.183Z,11.93
2022-12-15T00:51:45.832Z,11.50
2022-12-15T00:57:06.713Z,12.13
2022-12-15T01:02:29.677Z,11.55
2022-12-15T01:07:51.370Z,10.82
2022-12-15T01:13:12.541Z,11.00
2022-12-15T01:18:35.009Z,11.07
2022-12-15T01:23:40.161Z,10.68
2022-12-15T01:28:43.711Z,10.90
2022-12-15T01:33:48.919Z,10.63
2022-12-15T01:38:54.566Z,10.68
2022-12-15T01:44:19.495Z,10.23
2022-12-15T01:49:30.085Z,10.13
2022-12-15T01:54:40.169Z,9.98
2022-12-15T01:59:50.872Z,9.52
2022-12-15T02:04:59.878Z,9.27
2022-12-15T02:10:10.321Z,9.10
2022-12-15T02:15:24.903Z,8.75
2022-12-15T02:20:47.558Z,9.13
2022-12-15T02:26:19.046Z,9.15
2022-12-15T02:31:49.872Z,9.18
2022-12-15T02:37:00.976Z,9.00
2022-12-15T02:42:05.121Z,8.55
2022-12-15T02:47:25.693Z,8.77
2022-12-15T02:52:51.671Z,8.70
2022-12-15T02:58:02.816Z,8.43
2022-12-15T03:03:08.444Z,8.73
2022-12-15T03:08:12.414Z,8.45
2022-12-15T03:13:16.177Z,8.98
2022-12-15T03:18:21.788Z,8.40
2022-12-15T03:23:27.201Z,8.33
2022-12-15T03:28:30.943Z,8.23
2022-12-15T03:33:36.116Z,8.10
2022-12-15T03:38:39.716Z,8.02
2022-12-15T03:43:43.897Z,8.18
2022-12-15T03:48:48.997Z,8.30
2022-12-15T03:53:53.796Z,7.97
2022-12-15T03:58:57.628Z,7.78
2022-12-15T04:04:05.156Z,7.80
2022-12-15T04:09:08.741Z,7.72
2022-12-15T04:14:12.816Z,7.68
2022-12-15T04:19:35.726Z,7.43
2022-12-15T04:24:56.787Z,7.75
2022-12-15T04:30:17.806Z,7.78
2022-12-15T04:35:40.577Z,7.70
2022-12-15T04:41:01.674Z,7.28
2022-12-15T04:46:22.813Z,7.13
2022-12-15T04:51:45.435Z,7.25
2022-12-15T04:57:06.564Z,7.07
2022-12-15T05:02:27.686Z,6.88
2022-12-15T05:07:50.228Z,6.63
2022-12-15T05:13:11.555Z,6.80
2022-12-15T05:18:32.799Z,6.43
2022-12-15T05:23:55.218Z,6.32
2022-12-15T05:29:16.280Z,7.32
2022-12-15T05:34:22.489Z,7.35
2022-12-15T05:39:27.937Z,6.90
2022-12-15T05:44:31.693Z,7.20
2022-12-15T05:49:35.770Z,7.35
2022-12-15T05:54:40.858Z,7.10
2022-12-15T05:59:44.424Z,7.20
2022-12-15T06:04:48.121Z,6.88
2022-12-15T06:09:53.162Z,7.03
2022-12-15T06:14:56.728Z,7.55
2022-12-15T06:20:00.286Z,7.32
2022-12-15T06:25:06.862Z,7.57
2022-12-15T06:30:12.479Z,7.28
2022-12-15T06:35:16.283Z,7.38
2022-12-15T06:40:21.244Z,6.75
2022-12-15T06:45:24.955Z,6.97
2022-12-15T06:50:28.581Z,7.00
2022-12-15T06:55:34.057Z,6.93
2022-12-15T07:00:38.625Z,6.93
2022-12-15T07:05:42.506Z,7.28
2022-12-15T07:10:47.584Z,7.30
2022-12-15T07:15:51.472Z,6.97
2022-12-15T07:20:55.340Z,6.70
2022-12-15T07:26:06.665Z,7.00
2022-12-15T07:31:15.539Z,7.20
2022-12-15T07:36:19.542Z,7.28
2022-12-15T07:41:24.617Z,6.75
2022-12-15T07:46:29.217Z,7.05
2022-12-15T07:51:33.047Z,6.65
2022-12-15T07:56:39.415Z,6.93
2022-12-15T08:01:43.498Z,7.20
2022-12-15T08:06:47.269Z,6.85
2022-12-15T08:11:52.573Z,7.43
2022-12-15T08:16:56.406Z,7.20
2022-12-15T08:22:00.111Z,6.70
2022-12-15T08:27:05.566Z,7.13
2022-12-15T08:32:09.448Z,6.80
2022-12-15T08:37:13.042Z,6.78
2022-12-15T08:42:18.084Z,6.75
2022-12-15T08:47:21.668Z,6.75
2022-12-15T08:52:25.634Z,6.55
2022-12-15T08:57:30.651Z,6.53
2022-12-15T09:02:34.451Z,6.72
2022-12-15T09:07:38.193Z,6.25
2022-12-15T09:12:43.235Z,6.60
2022-12-15T09:17:47.784Z,6.38
2022-12-15T09:22:51.385Z,6.20
2022-12-15T09:27:57.207Z,6.57
2022-12-15T09:33:01.275Z,8.90
2022-12-15T09:38:05.219Z,11.00
2022-12-15T09:43:34.365Z,13.85
2022-12-15T09:48:43.876Z,15.50
2022-12-15T09:53:56.752Z,13.88
2022-12-15T09:59:17.725Z,13.32
2022-12-15T10:04:37.946Z,11.80
2022-12-15T10:09:41.707Z,11.23
2022-12-15T10:14:54.693Z,12.73
2022-12-15T10:20:14.050Z,13.10
2022-12-15T10:25:29.713Z,12.52
2022-12-15T10:30:36.718Z,11.32
2022-12-15T10:35:42.171Z,11.00
2022-12-15T10:40:52.022Z,11.07
2022-12-15T10:46:14.642Z,10.63
2022-12-15T10:51:26.652Z,10.30
2022-12-15T10:56:33.921Z,10.13
2022-12-15T11:01:58.111Z,9.93
2022-12-15T11:07:05.559Z,9.68
2022-12-15T11:12:36.645Z,9.93
2022-12-15T11:17:44.409Z,9.20
2022-12-15T11:22:56.504Z,8.63
2022-12-15T11:28:15.405Z,8.98
2022-12-15T11:33:20.519Z,9.10
2022-12-15T11:38:35.904Z,8.52
2022-12-15T11:44:21.366Z,9.10
2022-12-15T11:50:01.820Z,9.55
2022-12-15T11:55:18.078Z,8.60
2022-12-15T12:00:23.790Z,8.98
2022-12-15T12:06:01.438Z,8.40
2022-12-15T12:11:14.034Z,8.23
2022-12-15T12:16:36.114Z,8.68
2022-12-15T12:21:46.917Z,8.05
2022-12-15T12:27:01.567Z,8.35
2022-12-15T12:32:16.107Z,8.32
2022-12-15T12:37:31.960Z,8.45
2022-12-15T12:42:43.253Z,8.40
2022-12-15T12:47:52.554Z,8.10
2022-12-15T12:53:00.459Z,8.05
2022-12-15T13:03:20.905Z,7.68
2022-12-15T13:08:52.408Z,7.65
2022-12-15T13:13:56.479Z,7.57
2022-12-15T13:19:04.811Z,7.28
2022-12-15T13:24:31.674Z,8.02
2022-12-15T13:29:36.981Z,6.85
2022-12-15T13:34:45.368Z,7.43
2022-12-15T13:39:59.676Z,8.05
2022-12-15T13:45:51.002Z,7.35
2022-12-15T13:51:07.259Z,7.47
2022-12-15T13:56:53.212Z,7.13
2022-12-15T14:01:57.020Z,6.88
2022-12-15T14:07:03.706Z,7.20
2022-12-15T14:12:14.512Z,7.00
2022-12-15T14:17:20.639Z,6.80
2022-12-15T14:22:30.010Z,6.70
2022-12-15T14:27:35.899Z,6.88
2022-12-15T14:32:40.134Z,7.07
2022-12-15T14:37:43.887Z,7.00
2022-12-15T14:48:41.178Z,6.53
2022-12-15T14:53:53.210Z,6.80
2022-12-15T14:59:04.036Z,6.53
2022-12-15T15:04:25.697Z,6.38
2022-12-15T15:09:34.140Z,6.68
2022-12-15T15:14:44.920Z,6.47
2022-12-15T15:19:54.884Z,6.25
2022-12-15T15:24:58.674Z,5.97
2022-12-15T15:30:23.734Z,6.55
2022-12-15T15:35:33.510Z,6.40
2022-12-15T15:40:37.163Z,6.10
2022-12-15T15:45:43.925Z,6.70
2022-12-15T15:50:47.709Z,6.32
2022-12-15T15:55:52.759Z,6.90
2022-12-15T16:00:57.862Z,7.95
2022-12-15T16:06:02.177Z,8.65
2022-12-15T16:11:10.146Z,9.40
2022-12-15T16:16:21.745Z,9.90
2022-12-15T16:21:28.914Z,10.10
2022-12-15T16:26:35.677Z,10.37
2022-12-15T16:31:45.369Z,11.50
2022-12-15T16:36:49.524Z,13.00
2022-12-15T16:41:56.458Z,12.60
2022-12-15T16:47:01.863Z,11.80
2022-12-15T16:52:06.071Z,11.85
2022-12-15T16:57:13.236Z,11.02
2022-12-15T17:02:30.326Z,10.52
2022-12-15T17:07:34.173Z,10.50
2022-12-15T17:12:38.549Z,9.57
2022-12-15T17:17:43.482Z,9.73
2022-12-15T17:22:51.111Z,9.88
2022-12-15T17:27:56.572Z,8.57
2022-12-15T17:33:01.639Z,8.77
2022-12-15T17:38:05.427Z,8.38
2022-12-15T17:43:15.549Z,8.43
2022-12-15T17:48:21.698Z,7.97
2022-12-15T17:53:26.187Z,7.85
2022-12-15T17:58:29.858Z,7.68
2022-12-15T18:03:35.471Z,7.95
2022-12-15T18:08:39.757Z,6.93
2022-12-15T18:13:44.917Z,7.18
2022-12-15T18:18:50.778Z,7.10
2022-12-15T18:23:55.637Z,6.63
2022-12-15T18:28:59.353Z,6.20
2022-12-15T18:34:07.297Z,6.00
2022-12-15T18:44:27.129Z,5.63
2022-12-15T18:49:32.484Z,5.67
2022-12-15T18:54:36.353Z,6.00
2022-12-15T18:59:40.378Z,5.80
2022-12-15T19:04:45.646Z,5.78
2022-12-15T19:09:50.227Z,5.30
2022-12-15T19:14:55.251Z,5.70
2022-12-15T19:20:18.227Z,5.28
2022-12-15T19:25:27.232Z,5.20
2022-12-15T19:30:41.435Z,5.57
2022-12-15T19:35:52.040Z,4.90
2022-12-15T19:40:58.083Z,5.30
2022-12-15T19:46:01.615Z,5.13
2022-12-15T19:51:12.844Z,5.28
2022-12-15T19:56:22.709Z,4.95
2022-12-15T20:01:26.573Z,4.68
2022-12-15T20:06:32.210Z,4.80
2022-12-15T20:11:35.955Z,4.97
2022-12-15T20:16:39.856Z,4.90
2022-12-15T20:21:45.032Z,5.07
2022-12-15T20:26:48.869Z,5.40
2022-12-15T20:31:56.221Z,5.30
2022-12-15T20:37:01.230Z,4.90
2022-12-15T20:42:05.012Z,4.80
2022-12-15T20:47:16.244Z,4.75
2022-12-15T20:52:25.516Z,4.43
2022-12-15T20:57:29.127Z,4.60
2022-12-15T21:02:32.886Z,4.53
2022-12-15T21:07:38.049Z,4.85
2022-12-15T21:12:44.039Z,4.60
2022-12-15T21:17:57.977Z,4.45
2022-12-15T21:23:25.105Z,4.65
2022-12-15T21:28:29.218Z,4.80
2022-12-15T21:33:33.441Z,4.40
2022-12-15T21:38:40.650Z,4.70
2022-12-15T21:43:45.151Z,4.70
2022-12-15T21:49:06.472Z,4.90
2022-12-15T21:54:19.346Z,4.80
2022-12-15T21:59:26.697Z,4.90
2022-12-15T22:04:33.992Z,5.40
2022-12-15T22:09:39.146Z,5.00
2022-12-15T22:14:43.802Z,5.38
2022-12-15T22:19:48.707Z,4.65
2022-12-15T22:24:53.740Z,5.03
2022-12-15T22:29:57.652Z,5.80
2022-12-15T22:35:01.213Z,6.50
2022-12-15T22:40:08.545Z,8.32
2022-12-15T22:45:18.065Z,9.63
2022-12-15T22:50:27.301Z,9.82
2022-12-15T22:55:32.162Z,12.10
2022-12-15T23:00:35.926Z,11.15
2022-12-15T23:05:43.055Z,12.90
2022-12-15T23:11:05.769Z,16.20
2022-12-15T23:16:22.473Z,19.05
2022-12-15T23:21:26.421Z,20.33
2022-12-15T23:26:31.491Z,21.73
2022-12-15T23:31:35.524Z,21.80
2022-12-15T23:36:39.623Z,22.15
2022-12-15T23:41:44.509Z,22.75
2022-12-15T23:46:48.348Z,22.10
2022-12-15T23:51:51.905Z,22.42
2022-12-15T23:56:57.328Z,21.48
